• Join FlightAware (Why Join?)
  • Login
  • US Flag GB Flag 
05:30 EDT


 

Airport Tracker/Info


-or-


 

Live Flight TrackerFlight Track Log ✈ EJA922 ✈ 22-Aug-2013 ✈ KMSP - CYFJ / YTM

Flight Track Log - Related Links

Times and Time Zones

All times are in EDT time to prevent confusion due to time zone crossing. See the EJA922 flight status page for this flight to view local times or setup timezone preferences in your user account.

Time Position Orientation Groundspeed Altitude Reporting Facility
EDT Latitude Longitude Course Direction KTS MPH feet Rate Location/Type
17:12 44.9431 -93.2517 77° East 221 254 4,800  Level Minneapolis Center
17:13 44.9881 -93.1750 50° Northeast 275 316 9,100 3,480 Climbing Minneapolis Center
17:14 45.0289 -93.0614 63° Northeast 327 376 12,000 2,700 Climbing Minneapolis Center
17:15 45.0878 -92.8964 63° Northeast 389 448 14,800 2,460 Climbing Minneapolis Center
17:16 45.1381 -92.7561 63° Northeast 398 458 17,200 1,980 Climbing Minneapolis Center
17:18 45.0507 -92.1854 77° East  Level Estimated
17:18 45.1886 -92.6125 63° Northeast 404 465 19,000  Level Minneapolis Center
17:19 45.2406 -92.4642 64° Northeast 418 481 21,000 1,740 Climbing Minneapolis Center
17:20 45.2939 -92.3136 63° Northeast 427 491 22,700 1,500 Climbing Minneapolis Center
17:21 45.3233 -92.1369 77° East 457 526 24,200 1,560 Climbing Minneapolis Center
17:22 45.3167 -91.9108 92° East 476 548 26,000 1,560 Climbing Minneapolis Center
17:23 45.3017 -91.7156 96° East 491 565 27,500 1,500 Climbing Minneapolis Center
17:24 45.2867 -91.5181 96° East 499 574 29,100 1,440 Climbing Minneapolis Center
17:25 45.2703 -91.3161 97° East 506 582 30,500 1,380 Climbing Minneapolis Center
17:26 45.2681 -91.1089 91° East 519 597 32,000 1,440 Climbing Minneapolis Center
17:27 45.3053 -90.8681 78° East 520 598 33,500 1,200 Climbing Minneapolis Center
17:28 45.3364 -90.6578 78° East 533 613 34,500 960 Climbing Minneapolis Center
17:29 45.3678 -90.4397 78° East 550 633 35,500 960 Climbing Minneapolis Center
17:30 45.3986 -90.2206 79° East 563 648 36,500 1,080 Climbing Minneapolis Center
17:31 45.4286 -89.9989 79° East 571 657 37,800 1,320 Climbing Minneapolis Center
17:32 45.4589 -89.7817 79° East 567 652 39,300 1,560 Climbing Minneapolis Center
17:33 45.4919 -89.5250 80° East 556 640 41,100 1,380 Climbing Minneapolis Center
17:34 45.5203 -89.3125 79° East 552 635 42,200 960 Climbing Minneapolis Center
17:35 45.5472 -89.1003 80° East 551 634 43,200 960 Climbing Minneapolis Center
17:36 45.5747 -88.8911 79° East 545 627 44,200 840 Climbing Minneapolis Center
17:37 45.6061 -88.6425 80° East 536 617 45,000 360 Climbing Minneapolis Center
17:38 45.6314 -88.4342 80° East 535 616 45,000  Level Minneapolis Center
17:39 45.6581 -88.2217 80° East 544 626 45,000  Level Minneapolis Center
17:40 45.6814 -88.0244 80° East 549 632 45,000  Level Minneapolis Center
17:41 45.7114 -87.7647 81° East 551 634 45,000  Level Minneapolis Center
17:42 45.7367 -87.5467 80° East 555 639 45,000  Level Minneapolis Center
17:43 45.7619 -87.3292 80° East 556 640 45,000  Level Minneapolis Center
17:44 45.7853 -87.1108 81° East 556 640 45,000  Level Minneapolis Center
17:45 45.8050 -86.9372 81° East 552 635 45,000  Level Minneapolis Center
17:46 45.8331 -86.6756 81° East 551 634 45,000  Level Minneapolis Center
17:48 45.8600 -86.4192 81° East 544 626 45,000  Level Minneapolis Center
17:49 45.8819 -86.2064 81° East 541 623 45,000  Level Minneapolis Center
17:50 45.9033 -85.9947 82° East 536 617 45,000  Level Minneapolis Center
17:51 45.9242 -85.7819 82° East 538 619 45,000  Level Minneapolis Center
17:52 45.9447 -85.5689 82° East 537 618 45,000  Level Minneapolis Center
17:53 45.9650 -85.3575 82° East 535 616 45,000  Level Minneapolis Center
17:54 45.9875 -85.1039 83° East 533 613 45,000  Level Minneapolis Center
17:55 46.0075 -84.8967 82° East 529 609 45,000  Level Minneapolis Center
17:56 46.0264 -84.6889 82° East 525 604 45,000  Level Minneapolis Center
17:56 46.0333 -84.5500 86° East 530 610 45,000  Level Toronto Center
17:57 46.0333 -84.3333 90° East 530 610 45,000  Level Toronto Center
17:58 46.0667 -84.1333 76° East 530 610 45,000  Level Toronto Center
17:59 46.0667 -83.9167 90° East 530 610 45,000  Level Toronto Center
18:00 46.1000 -83.7167 76° East 520 598 45,000  Level Toronto Center
18:01 46.1167 -83.5000 84° East 530 610 45,000  Level Toronto Center
18:02 46.1167 -83.2833 90° East 530 610 45,000  Level Toronto Center
18:03 46.1500 -83.0667 77° East 530 610 45,000  Level Toronto Center
18:04 46.1500 -82.8500 90° East 530 610 45,000  Level Toronto Center
18:05 46.1833 -82.6500 76° East 530 610 45,000  Level Toronto Center
18:06 46.1833 -82.4500 90° East 530 610 45,000  Level Toronto Center
18:07 46.2000 -82.2167 84° East 540 621 45,000  Level Toronto Center
18:08 46.2000 -82.0167 90° East 540 621 45,000  Level Toronto Center
18:09 46.2333 -81.8000 77° East 540 621 45,000  Level Toronto Center
18:10 46.2500 -81.5833 84° East 540 621 45,000  Level Toronto Center
18:11 46.2500 -81.3500 90° East 540 621 45,000  Level Toronto Center
18:12 46.2667 -81.1500 83° East 550 633 45,000  Level Toronto Center
18:13 46.2667 -80.9167 90° East 550 633 45,000  Level Toronto Center
18:14 46.3000 -80.7000 77° East 550 633 45,000  Level Toronto Center
18:15 46.3000 -80.5000 90° East 550 633 45,000  Level Toronto Center
18:16 46.3167 -80.2667 84° East 550 633 45,000  Level Toronto Center
18:17 46.3333 -80.0500 84° East 550 633 45,000  Level Toronto Center
18:18 46.3333 -79.8167 90° East 550 633 45,000  Level Toronto Center
18:19 46.3500 -79.5833 84° East 550 633 45,000 -480 Level Toronto Center
18:20 46.3500 -79.3833 90° East 560 644 44,100 -960 Descending Toronto Center
18:21 46.3500 -79.1500 90° East 570 656 43,100 -1,020 Descending Toronto Center
18:22 46.3333 -78.9000 95° East 570 656 42,100 -1,020 Descending Toronto Center
18:23 46.3333 -78.6833 90° East 570 656 41,100 -1,020 Descending Toronto Center
18:24 46.3333 -78.4500 90° East 560 644 40,100 -1,020 Descending Toronto Center
18:25 46.3167 -78.2333 96° East 570 656 39,100 -1,260 Descending Toronto Center
18:26 46.3333 -77.9833 84° East 580 667 37,600 -1,500 Descending Toronto Center
18:27 46.3333 -77.8833 90° East 590 679 36,700 -1,500 Descending Montreal Center
18:28 46.3500 -77.6167 85° East 620 713 35,200 -1,500 Descending Montreal Center
18:29 46.3500 -77.3833 90° East 630 725 33,700 -1,500 Descending Montreal Center
18:30 46.3500 -77.1167 90° East 630 725 32,300 -1,200 Descending Montreal Center
18:31 46.3667 -76.8667 84° East 630 725 31,400 -1,200 Descending Montreal Center
18:32 46.3667 -76.6000 90° East 620 713 29,900 -1,500 Descending Montreal Center
18:33 46.3833 -76.3833 84° East 610 702 28,500 -2,100 Descending Montreal Center
18:34 46.3833 -76.1333 90° East 570 656 25,800 -2,940 Descending Montreal Center
18:35 46.3833 -75.9167 90° East 520 598 22,700 -3,180 Descending Montreal Center
18:36 46.3833 -75.7000 90° East 520 598 19,500 -3,120 Descending Montreal Center
18:37 46.4000 -75.5333 82° East 450 518 16,500 -3,000 Descending Montreal Center
18:38 46.4000 -75.3667 90° East 400 460 13,600 -3,060 Descending Montreal Center
18:39 46.4000 -75.2167 90° East 340 391 10,400 -2,820 Descending Montreal Center
18:40 46.4000 -75.1000 90° East 300 345 8,000 -2,040 Descending Montreal Center
18:41 46.4000 -74.9667 90° East 260 299 6,400 -2,160 Descending Montreal Center
18:42 46.3667 -74.8667 116° Southeast 270 311 3,700 -2,700 Descending Montreal Center
18:44 46.4000 -74.7667 90° East  Level FlightAware Approximate
18:51 46.4094 -74.7797 90° East  Level Estimated
18:52 46.4094 -74.7797 90° East  Level Estimated